Time;durP1;ratioP1;P1;durP2;ratioP2;P2;SDS_P1;SDS_P2;PMS_P1;PMS_P2;Temp;Humidity;BMP_temperature;BMP_pressure;BME280_temperature;BME280_humidity;BME280_pressure;Samples;Min_cycle;Max_cycle;Signal;HPM_P1;HPM_P2
2023/09/19 00:00:21;;;;;;;13.00;4.70;;;;;;;15.75;72.31;94314.50;5084092;28;20091;-85
2023/09/19 00:02:53;;;;;;;9.27;4.63;;;;;;;15.77;72.33;94319.50;5083393;28;20020;-85
2023/09/19 00:05:19;;;;;;;9.20;5.55;;;;;;;15.77;72.58;94316.81;5083288;28;20020;-85
2023/09/19 00:07:44;;;;;;;14.43;4.50;;;;;;;15.78;72.50;94319.19;5082832;28;20230;-85
2023/09/19 00:10:10;;;;;;;7.47;5.63;;;;;;;15.81;72.61;94318.53;5084069;28;20028;-88
2023/09/19 00:12:35;;;;;;;9.05;4.97;;;;;;;15.84;72.48;94320.53;5066041;28;20056;-88
2023/09/19 00:15:05;;;;;;;7.88;4.63;;;;;;;15.80;72.65;94316.94;5084563;28;20121;-88
2023/09/19 00:17:31;;;;;;;15.93;5.53;;;;;;;15.75;73.28;94322.56;5084950;28;20043;-88
2023/09/19 00:19:57;;;;;;;9.63;5.10;;;;;;;15.71;73.45;94316.22;5084441;28;20384;-87
2023/09/19 00:22:26;;;;;;;9.07;5.00;;;;;;;15.71;73.44;94313.53;5084333;28;20083;-88
2023/09/19 00:24:52;;;;;;;12.13;5.22;;;;;;;15.67;73.54;94309.94;5084423;28;20208;-88
2023/09/19 00:27:18;;;;;;;8.38;5.03;;;;;;;15.62;73.52;94300.19;5083795;28;20035;-84
2023/09/19 00:29:43;;;;;;;9.23;5.53;;;;;;;15.59;73.57;94300.06;5065966;28;20031;-84
2023/09/19 00:32:09;;;;;;;7.70;4.97;;;;;;;15.63;73.96;94304.47;5083917;28;20028;-85
2023/09/19 00:34:35;;;;;;;19.58;6.15;;;;;;;15.61;74.06;94303.22;5065905;28;20025;-85
2023/09/19 00:37:00;;;;;;;9.40;5.18;;;;;;;15.56;73.68;94306.91;5083506;28;20302;-86
2023/09/19 00:39:27;;;;;;;9.60;5.45;;;;;;;15.54;73.69;94295.72;5083515;28;20027;-85
2023/09/19 00:41:54;;;;;;;6.43;4.85;;;;;;;15.44;74.33;94288.84;5083686;28;20033;-85
2023/09/19 00:44:22;;;;;;;9.38;4.88;;;;;;;15.43;74.47;94290.00;5083481;28;20230;-86
2023/09/19 00:46:49;;;;;;;11.52;4.85;;;;;;;15.37;74.69;94294.00;5065675;28;20204;-85
2023/09/19 00:49:15;;;;;;;8.75;4.82;;;;;;;15.38;74.94;94298.25;5083455;28;20024;-85
2023/09/19 00:51:41;;;;;;;8.75;5.43;;;;;;;15.39;74.62;94299.84;5065694;28;20031;-85
2023/09/19 00:54:07;;;;;;;14.38;5.60;;;;;;;15.35;75.00;94300.84;5065641;28;20035;-85
2023/09/19 00:56:33;;;;;;;19.30;5.57;;;;;;;15.28;75.00;94298.66;5083255;28;20052;-85
2023/09/19 00:58:59;;;;;;;7.80;4.93;;;;;;;15.25;74.96;94296.66;5083411;28;20050;-85
2023/09/19 01:01:25;;;;;;;11.20;5.00;;;;;;;15.23;74.71;94298.91;5083309;28;20024;-85
2023/09/19 01:03:51;;;;;;;10.65;5.00;;;;;;;15.15;74.55;94294.41;5083057;28;20039;-85
2023/09/19 01:06:17;;;;;;;9.98;5.75;;;;;;;15.09;75.15;94298.41;5065298;28;20028;-85
2023/09/19 01:08:43;;;;;;;10.10;5.45;;;;;;;15.04;75.52;94300.19;5082672;28;20033;-83
2023/09/19 01:11:43;;;;;;;8.88;5.65;;;;;;;15.14;75.46;94303.56;5083263;28;20024;-85
2023/09/19 01:14:11;;;;;;;13.38;5.63;;;;;;;15.11;75.52;94290.81;5029506;28;20043;-85
2023/09/19 01:17:00;;;;;;;8.38;5.00;;;;;;;15.03;75.65;94297.81;5065353;28;20200;-86
2023/09/19 01:19:52;;;;;;;9.20;5.60;;;;;;;14.97;76.03;94297.22;5083113;28;20223;-85
2023/09/19 01:22:29;;;;;;;12.32;5.32;;;;;;;14.93;76.50;94299.00;5065274;28;20020;-86
2023/09/19 01:25:10;;;;;;;9.35;5.22;;;;;;;14.94;76.49;94313.19;5082967;28;20052;-85
2023/09/19 01:27:53;;;;;;;8.68;5.43;;;;;;;14.92;76.24;94305.50;5083053;28;20020;-86
2023/09/19 01:30:24;;;;;;;11.07;5.55;;;;;;;14.92;75.81;94310.88;5065224;28;20025;-86
2023/09/19 01:32:52;;;;;;;10.05;5.68;;;;;;;14.86;75.95;94301.44;5065253;28;20334;-87
2023/09/19 01:35:18;;;;;;;8.88;5.72;;;;;;;14.80;76.18;94294.72;5083515;28;20362;-88
2023/09/19 01:37:44;;;;;;;7.90;5.60;;;;;;;14.75;76.71;94295.69;5082386;28;20021;-86
2023/09/19 01:40:18;;;;;;;16.20;5.95;;;;;;;14.82;76.52;94293.25;5083434;28;20035;-87
2023/09/19 01:43:10;;;;;;;9.77;5.53;;;;;;;14.74;76.82;94298.72;5083557;28;20137;-87
2023/09/19 01:45:57;;;;;;;8.20;5.40;;;;;;;14.71;76.92;94297.44;5065618;28;20039;-87
2023/09/19 01:48:42;;;;;;;11.60;5.68;;;;;;;14.72;76.81;94290.19;5065815;28;20028;-87
2023/09/19 01:51:10;;;;;;;7.82;5.18;;;;;;;14.58;77.22;94296.59;5083292;28;20024;-87
2023/09/19 01:53:56;;;;;;;10.27;6.05;;;;;;;14.42;78.09;94293.69;5065381;28;20200;-86
2023/09/19 01:56:32;;;;;;;10.38;5.75;;;;;;;14.33;78.53;94287.63;5083099;28;20017;-87
2023/09/19 01:59:09;;;;;;;10.27;5.57;;;;;;;14.29;79.06;94299.28;5083084;28;20033;-86
2023/09/19 02:01:37;;;;;;;8.95;5.60;;;;;;;14.26;79.38;94300.75;5083200;28;20032;-87
2023/09/19 02:04:02;;;;;;;10.30;5.32;;;;;;;14.29;79.22;94307.34;5082843;28;20040;-86
2023/09/19 02:06:28;;;;;;;9.68;5.35;;;;;;;14.27;79.38;94312.25;5082712;28;20031;-86
2023/09/19 02:08:54;;;;;;;12.10;5.03;;;;;;;14.24;79.80;94309.09;5082862;28;20314;-86
2023/09/19 02:11:20;;;;;;;11.50;5.53;;;;;;;14.24;79.58;94314.47;5082992;28;20050;-86
2023/09/19 02:13:45;;;;;;;12.93;5.97;;;;;;;14.23;79.83;94307.53;5082766;28;20037;-86
2023/09/19 02:16:12;;;;;;;11.45;5.78;;;;;;;14.27;79.68;94305.00;5083048;28;20028;-87
2023/09/19 02:18:39;;;;;;;11.77;6.25;;;;;;;14.23;79.62;94307.53;5083309;28;20027;-86
2023/09/19 02:21:06;;;;;;;8.48;5.20;;;;;;;14.21;79.75;94303.63;5085864;28;20029;-86
2023/09/19 02:23:33;;;;;;;8.95;5.80;;;;;;;14.31;79.43;94308.59;5086268;28;20024;-86
2023/09/19 02:26:02;;;;;;;9.50;5.40;;;;;;;14.27;79.57;94315.72;5086250;28;20023;-86
2023/09/19 02:28:31;;;;;;;11.07;5.43;;;;;;;14.22;79.75;94305.97;5086146;28;20272;-85
2023/09/19 02:30:57;;;;;;;11.93;6.75;;;;;;;14.25;79.81;94297.28;5068371;28;20024;-85
2023/09/19 02:33:23;;;;;;;11.20;5.85;;;;;;;14.30;79.60;94285.56;5068151;28;20101;-85
2023/09/19 02:35:48;;;;;;;10.93;5.75;;;;;;;14.31;79.66;94287.16;5085783;28;20310;-85
2023/09/19 02:38:18;;;;;;;12.75;6.07;;;;;;;14.31;79.30;94284.47;5085906;28;20036;-85
2023/09/19 02:40:43;;;;;;;9.57;5.43;;;;;;;14.32;79.03;94288.72;5086058;28;20215;-86
2023/09/19 02:43:09;;;;;;;10.25;5.45;;;;;;;14.32;79.35;94274.53;5085941;28;20091;-85
2023/09/19 02:45:35;;;;;;;7.90;5.05;;;;;;;14.36;79.21;94280.81;5085792;28;20027;-84
2023/09/19 02:48:04;;;;;;;12.30;5.85;;;;;;;14.36;79.15;94278.13;5085705;28;20017;-85
2023/09/19 02:50:29;;;;;;;8.95;4.95;;;;;;;14.36;79.06;94268.19;5085646;28;20040;-85
2023/09/19 02:52:55;;;;;;;8.70;5.72;;;;;;;14.34;79.11;94277.66;5085774;28;20024;-85
2023/09/19 02:55:21;;;;;;;10.40;5.57;;;;;;;14.38;79.17;94270.53;5085730;28;20058;-85
2023/09/19 02:57:52;;;;;;;9.35;6.05;;;;;;;14.30;79.03;94271.38;5085435;28;20108;-85
2023/09/19 03:00:21;;;;;;;9.15;5.22;;;;;;;14.25;79.50;94267.00;5085720;28;20016;-85
2023/09/19 03:02:49;;;;;;;12.38;5.95;;;;;;;14.28;79.39;94270.94;5085626;28;20024;-85
2023/09/19 03:05:14;;;;;;;9.05;5.72;;;;;;;14.26;79.36;94260.53;5085323;28;20093;-85
2023/09/19 03:07:42;;;;;;;10.57;5.72;;;;;;;14.20;79.63;94257.25;5085662;28;20040;-84
2023/09/19 03:10:09;;;;;;;11.63;5.32;;;;;;;14.24;79.54;94252.03;5085841;28;20032;-88
2023/09/19 03:12:35;;;;;;;8.90;5.53;;;;;;;14.21;79.71;94250.78;5085644;28;20020;-86
2023/09/19 03:15:01;;;;;;;14.35;5.95;;;;;;;14.15;79.87;94248.63;5067598;28;20115;-86
2023/09/19 03:17:27;;;;;;;14.70;5.60;;;;;;;14.13;80.04;94248.94;5085735;28;20027;-87
2023/09/19 03:19:57;;;;;;;9.35;6.10;;;;;;;14.15;80.14;94260.13;5067772;28;20264;-86
2023/09/19 03:22:22;;;;;;;7.53;5.20;;;;;;;14.19;79.66;94254.91;5084155;28;20031;-85
2023/09/19 03:24:48;;;;;;;7.80;5.43;;;;;;;14.14;79.98;94255.84;5084685;28;20227;-85
2023/09/19 03:27:16;;;;;;;10.63;6.90;;;;;;;14.07;80.23;94258.28;5083484;28;20031;-86
2023/09/19 03:29:42;;;;;;;11.73;6.32;;;;;;;14.10;80.20;94254.16;5067451;28;20055;-86
2023/09/19 03:32:10;;;;;;;14.68;7.03;;;;;;;14.07;80.18;94255.59;5084571;28;20087;-86
2023/09/19 03:34:43;;;;;;;12.90;6.72;;;;;;;14.03;80.45;94252.78;5085149;28;20013;-87
2023/09/19 03:37:09;;;;;;;10.98;6.03;;;;;;;14.03;80.55;94254.69;5085293;28;20084;-86
2023/09/19 03:39:35;;;;;;;10.88;6.25;;;;;;;14.04;80.25;94261.59;5085244;28;20024;-86
2023/09/19 03:42:02;;;;;;;12.77;6.38;;;;;;;14.04;80.39;94259.72;5085556;28;20437;-86
2023/09/19 03:44:28;;;;;;;9.32;5.75;;;;;;;14.02;80.27;94269.19;5085137;28;20028;-86
2023/09/19 03:46:55;;;;;;;14.82;6.13;;;;;;;13.99;80.44;94269.84;5085016;28;20059;-89
2023/09/19 03:49:20;;;;;;;11.73;6.00;;;;;;;14.00;80.36;94268.72;5085412;28;20029;-89
2023/09/19 03:51:46;;;;;;;10.95;5.57;;;;;;;13.90;80.16;94275.25;5067685;28;20150;-90
2023/09/19 03:54:12;;;;;;;8.30;5.43;;;;;;;13.86;80.72;94274.34;5067789;28;20016;-89
2023/09/19 03:56:38;;;;;;;13.32;6.18;;;;;;;13.78;81.13;94277.81;5084891;28;20039;-84
2023/09/19 03:59:03;;;;;;;10.43;6.38;;;;;;;13.71;81.54;94278.31;5084363;28;20021;-85
2023/09/19 04:01:31;;;;;;;10.80;6.55;;;;;;;13.67;82.06;94273.94;5066676;28;20322;-85
2023/09/19 04:03:57;;;;;;;10.93;5.68;;;;;;;13.66;82.30;94283.88;5084182;28;20032;-84
2023/09/19 04:06:23;;;;;;;10.70;6.05;;;;;;;13.69;82.27;94271.72;5082880;28;20062;-83
2023/09/19 04:08:48;;;;;;;17.77;7.63;;;;;;;13.74;82.29;94280.38;5084218;28;20305;-83
2023/09/19 04:11:14;;;;;;;12.18;6.05;;;;;;;13.77;81.91;94284.28;5084039;28;20228;-83
2023/09/19 04:13:39;;;;;;;9.93;6.10;;;;;;;13.76;82.22;94294.22;5084078;28;20291;-85
2023/09/19 04:16:06;;;;;;;10.63;5.68;;;;;;;13.78;82.01;94297.38;5083917;28;20036;-85
2023/09/19 04:18:33;;;;;;;12.43;6.72;;;;;;;13.77;81.85;94292.34;5066247;28;20101;-86
2023/09/19 04:20:59;;;;;;;12.43;6.47;;;;;;;13.74;82.29;94288.41;5083988;28;20016;-86
2023/09/19 04:23:25;;;;;;;10.10;6.35;;;;;;;13.76;82.46;94299.59;5084029;28;20027;-83
2023/09/19 04:25:51;;;;;;;13.18;6.88;;;;;;;13.78;82.38;94291.22;5083494;28;20310;-84
2023/09/19 04:28:16;;;;;;;12.80;5.90;;;;;;;13.81;82.44;94287.91;5083898;28;20099;-84
2023/09/19 04:30:42;;;;;;;10.48;6.32;;;;;;;13.82;82.64;94281.44;5084188;28;20027;-84
2023/09/19 04:33:08;;;;;;;13.93;7.15;;;;;;;13.81;82.58;94283.31;5065932;28;20099;-84
2023/09/19 04:35:33;;;;;;;9.95;6.13;;;;;;;13.82;83.00;94284.91;5083786;28;20027;-85
2023/09/19 04:37:59;;;;;;;18.38;7.22;;;;;;;13.88;82.98;94282.84;5083807;28;20043;-85
2023/09/19 04:40:26;;;;;;;20.88;6.60;;;;;;;14.01;82.79;94283.72;5083619;28;20021;-85
2023/09/19 04:42:58;;;;;;;15.27;7.45;;;;;;;14.11;82.46;94277.97;5083199;28;20086;-85
2023/09/19 04:45:24;;;;;;;15.10;6.78;;;;;;;14.15;82.25;94278.13;5065635;28;20024;-85
2023/09/19 04:47:49;;;;;;;15.10;7.20;;;;;;;14.28;82.21;94274.38;5083874;28;20027;-86
2023/09/19 04:50:14;;;;;;;20.60;7.28;;;;;;;14.41;81.75;94280.59;5084034;28;20021;-87
2023/09/19 04:52:44;;;;;;;14.45;7.10;;;;;;;14.52;81.39;94265.69;5066131;28;20029;-87
2023/09/19 04:55:19;;;;;;;18.10;6.97;;;;;;;14.69;81.81;94275.53;5084299;28;20020;-86
2023/09/19 04:57:45;;;;;;;21.90;7.18;;;;;;;14.85;81.48;94278.41;5084128;28;20035;-87
2023/09/19 05:00:17;;;;;;;31.70;6.55;;;;;;;14.95;81.20;94267.25;5084165;28;20024;-87
2023/09/19 05:02:43;;;;;;;25.60;6.85;;;;;;;15.04;80.81;94264.47;5066078;28;20016;-85
2023/09/19 05:05:14;;;;;;;9.18;6.00;;;;;;;15.23;80.00;94258.63;5065557;28;20069;-86
2023/09/19 05:07:41;;;;;;;9.73;6.05;;;;;;;15.38;78.45;94268.72;5083682;28;20265;-87
2023/09/19 05:10:07;;;;;;;13.35;7.07;;;;;;;15.48;77.55;94255.97;5083603;28;20031;-84
2023/09/19 05:12:34;;;;;;;13.70;7.18;;;;;;;15.59;77.05;94251.72;5082899;28;20406;-78
2023/09/19 05:15:01;;;;;;;15.30;6.15;;;;;;;15.72;76.75;94261.41;5082799;28;20072;-78
2023/09/19 05:17:27;;;;;;;15.10;7.03;;;;;;;15.80;75.99;94268.56;5082874;28;20273;-78
2023/09/19 05:19:52;;;;;;;16.02;7.38;;;;;;;15.87;75.30;94259.16;5082875;28;20025;-78
2023/09/19 05:22:18;;;;;;;14.10;7.45;;;;;;;15.89;75.18;94260.38;5082929;28;20032;-78
2023/09/19 05:24:47;;;;;;;19.00;8.45;;;;;;;15.90;74.90;94263.88;5082914;28;20034;-77
2023/09/19 05:27:12;;;;;;;19.90;11.00;;;;;;;15.90;74.59;94258.50;5082761;28;20024;-78
2023/09/19 05:29:38;;;;;;;26.58;14.20;;;;;;;15.94;74.35;94256.72;5083166;28;20341;-78
2023/09/19 05:32:04;;;;;;;22.63;13.30;;;;;;;16.01;73.68;94252.31;5082896;28;20214;-77
2023/09/19 05:34:30;;;;;;;21.17;14.85;;;;;;;16.08;73.39;94245.59;5082635;28;20016;-77
2023/09/19 05:36:55;;;;;;;21.45;12.85;;;;;;;16.14;73.97;94246.91;5082825;28;20151;-77
2023/09/19 05:39:22;;;;;;;15.48;7.30;;;;;;;16.28;73.15;94249.25;5082784;28;20013;-77
2023/09/19 05:41:48;;;;;;;15.48;7.63;;;;;;;16.30;72.61;94253.16;5082832;28;20028;-77
2023/09/19 05:44:14;;;;;;;28.83;7.53;;;;;;;16.36;71.77;94251.81;5082729;28;20323;-78
2023/09/19 05:46:39;;;;;;;25.98;7.05;;;;;;;16.36;71.59;94251.03;5082826;28;20028;-78
2023/09/19 05:49:05;;;;;;;23.45;7.07;;;;;;;16.33;71.48;94249.03;5082640;28;20390;-78
2023/09/19 05:51:30;;;;;;;15.63;6.70;;;;;;;16.36;71.46;94245.66;5082615;28;20223;-79
2023/09/19 05:53:56;;;;;;;14.68;7.25;;;;;;;16.45;71.28;94249.78;5082726;28;20024;-79
2023/09/19 05:56:22;;;;;;;17.00;7.10;;;;;;;16.54;71.52;94246.16;5086249;28;20024;-83
2023/09/19 05:58:47;;;;;;;20.92;6.95;;;;;;;16.64;71.77;94251.06;5086669;28;20024;-74
2023/09/19 06:01:13;;;;;;;28.17;7.72;;;;;;;16.75;71.27;94245.97;5086385;28;20020;-75
2023/09/19 06:03:38;;;;;;;18.13;7.40;;;;;;;16.78;70.99;94245.31;5086683;28;20021;-77
2023/09/19 06:06:06;;;;;;;18.63;7.20;;;;;;;16.84;70.71;94238.59;5086394;28;20056;-79
2023/09/19 06:08:33;;;;;;;18.85;7.20;;;;;;;16.94;69.59;94227.31;5086343;28;20021;-81
2023/09/19 06:10:59;;;;;;;12.95;6.45;;;;;;;17.09;68.88;94238.47;5086106;28;20020;-76
2023/09/19 06:13:26;;;;;;;12.98;6.35;;;;;;;17.17;67.42;94238.31;5086215;28;20227;-76
2023/09/19 06:15:52;;;;;;;15.48;7.10;;;;;;;17.16;67.57;94244.06;5086260;28;20094;-76
2023/09/19 06:18:19;;;;;;;10.90;5.70;;;;;;;17.19;67.71;94235.28;5086359;28;20032;-76
2023/09/19 06:20:50;;;;;;;18.35;6.53;;;;;;;17.26;67.70;94238.16;5085997;28;20020;-75
2023/09/19 06:23:17;;;;;;;13.23;7.03;;;;;;;17.42;67.25;94230.88;5086172;28;20012;-76
2023/09/19 06:25:43;;;;;;;12.85;6.47;;;;;;;17.45;67.14;94230.16;5085118;28;20020;-76
2023/09/19 06:28:12;;;;;;;27.65;6.63;;;;;;;17.47;67.37;94229.81;5068359;28;20027;-76
2023/09/19 06:30:40;;;;;;;11.25;5.50;;;;;;;17.51;66.77;94232.63;5085855;28;20028;-76
2023/09/19 06:33:06;;;;;;;15.93;5.93;;;;;;;17.58;67.19;94232.78;5085682;28;20017;-77
2023/09/19 06:35:33;;;;;;;10.25;6.40;;;;;;;17.72;67.50;94232.34;5085923;28;20059;-76
2023/09/19 06:38:02;;;;;;;17.83;6.03;;;;;;;17.80;67.02;94229.47;5067968;28;20024;-77
2023/09/19 06:40:28;;;;;;;13.88;5.10;;;;;;;17.97;67.14;94235.63;5085845;28;20104;-77
2023/09/19 06:42:53;;;;;;;14.40;4.72;;;;;;;18.14;65.27;94229.88;5085728;28;20044;-77
2023/09/19 06:45:21;;;;;;;13.77;5.05;;;;;;;18.24;64.88;94232.03;5085444;28;20052;-77
2023/09/19 06:47:50;;;;;;;14.25;6.13;;;;;;;18.36;64.03;94239.22;5085540;28;20044;-76
2023/09/19 06:50:22;;;;;;;11.60;6.03;;;;;;;18.44;63.70;94245.56;5085667;28;20311;-76
2023/09/19 06:52:49;;;;;;;12.25;5.65;;;;;;;18.35;63.43;94243.03;5067742;28;20054;-76
2023/09/19 06:55:16;;;;;;;16.17;5.10;;;;;;;18.38;63.43;94241.56;5067546;28;20103;-76
2023/09/19 06:57:44;;;;;;;9.30;4.80;;;;;;;18.38;63.55;94239.66;5085281;28;20033;-77
2023/09/19 07:00:21;;;;;;;10.48;5.10;;;;;;;18.48;64.24;94243.72;5085653;28;20032;-77
2023/09/19 07:03:01;;;;;;;9.23;4.57;;;;;;;18.55;63.24;94240.38;5067421;28;20334;-77
2023/09/19 07:05:27;;;;;;;11.15;4.70;;;;;;;18.62;63.28;94246.72;5067317;28;20215;-76
2023/09/19 07:07:58;;;;;;;12.07;4.88;;;;;;;18.79;63.35;94239.34;5084140;28;20322;-78
2023/09/19 07:10:25;;;;;;;12.43;4.87;;;;;;;18.91;62.63;94243.81;5085367;28;20048;-79
2023/09/19 07:13:01;;;;;;;10.43;4.20;;;;;;;18.96;62.69;94248.94;5085251;28;20028;-75
2023/09/19 07:15:28;;;;;;;11.45;4.18;;;;;;;19.15;61.22;94235.41;5085332;28;20269;-78
2023/09/19 07:17:55;;;;;;;12.30;4.78;;;;;;;19.20;60.43;94242.44;5085419;28;20028;-78
2023/09/19 07:20:23;;;;;;;10.98;4.93;;;;;;;19.11;61.37;94255.38;5085235;28;20222;-78
2023/09/19 07:22:51;;;;;;;8.70;4.85;;;;;;;19.15;61.37;94245.41;5084871;28;20025;-78
2023/09/19 07:25:16;;;;;;;11.82;4.88;;;;;;;19.17;61.17;94248.56;5084906;28;20037;-82
2023/09/19 07:27:42;;;;;;;15.70;4.75;;;;;;;19.24;60.94;94251.41;5085019;28;20024;-76
2023/09/19 07:30:09;;;;;;;15.75;5.25;;;;;;;19.07;60.74;94254.53;5084932;28;20051;-77
2023/09/19 07:32:37;;;;;;;13.18;4.82;;;;;;;19.06;61.00;94248.34;5082989;28;20033;-76
2023/09/19 07:35:03;;;;;;;16.63;6.35;;;;;;;19.08;60.75;94250.72;5084168;28;20032;-76
2023/09/19 07:37:33;;;;;;;11.05;4.80;;;;;;;19.08;60.61;94250.72;5084532;28;20027;-76
2023/09/19 07:39:59;;;;;;;9.68;4.88;;;;;;;19.02;60.88;94248.28;5083727;28;20036;-77
2023/09/19 07:42:25;;;;;;;13.52;4.90;;;;;;;19.04;61.96;94251.41;5084463;28;20084;-77
2023/09/19 07:44:51;;;;;;;14.10;5.30;;;;;;;19.10;60.59;94253.84;5084677;28;20269;-77
2023/09/19 07:47:16;;;;;;;10.15;4.25;;;;;;;19.18;60.71;94244.72;5084466;28;20089;-77
2023/09/19 07:49:42;;;;;;;10.68;4.47;;;;;;;19.24;60.30;94252.16;5084588;28;20024;-76
2023/09/19 07:52:09;;;;;;;10.98;4.70;;;;;;;19.25;60.36;94255.66;5084278;28;20028;-76
2023/09/19 07:54:35;;;;;;;10.15;5.30;;;;;;;19.23;60.53;94252.53;5084063;28;20055;-77
2023/09/19 07:57:04;;;;;;;17.75;6.25;;;;;;;19.13;61.40;94262.00;5084162;28;20032;-76
2023/09/19 07:59:29;;;;;;;18.75;6.05;;;;;;;19.14;61.37;94250.06;5083797;28;20028;-76
2023/09/19 08:01:55;;;;;;;15.38;4.72;;;;;;;19.22;60.91;94253.69;5084122;28;20127;-77
2023/09/19 08:04:20;;;;;;;10.10;4.95;;;;;;;19.31;60.43;94256.91;5083969;28;20333;-76
2023/09/19 08:06:46;;;;;;;7.80;4.60;;;;;;;19.37;60.56;94252.78;5083983;28;20032;-76
2023/09/19 08:09:14;;;;;;;14.73;4.57;;;;;;;19.54;61.01;94245.34;5083974;28;20337;-76
2023/09/19 08:11:39;;;;;;;6.05;3.85;;;;;;;19.71;61.08;94238.72;5084142;28;20020;-76
2023/09/19 08:14:07;;;;;;;12.55;4.80;;;;;;;19.92;60.73;94238.25;5083594;28;20146;-76
2023/09/19 08:16:33;;;;;;;11.23;5.25;;;;;;;20.11;59.89;94230.06;5083696;28;20039;-76
2023/09/19 08:18:58;;;;;;;12.40;4.82;;;;;;;20.25;59.06;94226.75;5083494;28;20241;-76
2023/09/19 08:21:24;;;;;;;14.27;5.55;;;;;;;20.40;58.51;94227.75;5083597;28;20382;-76
2023/09/19 08:23:50;;;;;;;14.80;5.90;;;;;;;20.45;57.72;94227.41;5083690;28;20074;-76
2023/09/19 08:26:15;;;;;;;17.23;5.22;;;;;;;20.64;57.31;94224.63;5065473;28;20065;-76
2023/09/19 08:28:40;;;;;;;10.27;5.25;;;;;;;20.82;57.07;94222.13;5083847;28;20052;-76
2023/09/19 08:31:08;;;;;;;11.93;4.55;;;;;;;20.91;56.67;94219.13;5083527;28;20085;-76
2023/09/19 08:33:35;;;;;;;12.63;4.45;;;;;;;21.01;56.53;94226.59;5083626;28;20020;-77
2023/09/19 08:36:04;;;;;;;16.38;4.95;;;;;;;21.09;56.23;94229.41;5083247;28;20088;-77
2023/09/19 08:38:33;;;;;;;15.32;6.43;;;;;;;21.30;56.01;94228.81;5083419;28;20021;-77
2023/09/19 08:40:59;;;;;;;7.85;4.35;;;;;;;21.33;54.08;94236.19;5083439;28;20043;-77
2023/09/19 08:43:26;;;;;;;8.80;4.30;;;;;;;21.31;54.29;94235.78;5083015;28;20077;-76
2023/09/19 08:46:03;;;;;;;8.98;5.05;;;;;;;21.28;54.15;94234.63;5083210;28;20253;-76
2023/09/19 08:48:30;;;;;;;10.07;4.63;;;;;;;21.28;54.14;94223.00;5083253;28;20032;-76
2023/09/19 08:51:01;;;;;;;9.25;4.85;;;;;;;21.28;54.80;94218.34;5083020;28;20231;-77
2023/09/19 08:53:42;;;;;;;10.25;5.20;;;;;;;21.35;54.31;94223.84;5083194;28;20223;-77
2023/09/19 08:56:10;;;;;;;8.55;4.47;;;;;;;21.38;53.99;94219.59;5083171;28;20030;-77
2023/09/19 08:58:48;;;;;;;13.05;4.95;;;;;;;21.36;54.23;94219.97;5083115;28;20357;-76
2023/09/19 09:01:22;;;;;;;8.85;4.90;;;;;;;21.51;54.78;94217.44;5083086;28;20036;-77
2023/09/19 09:03:48;;;;;;;11.52;5.30;;;;;;;21.59;53.77;94221.75;5082917;28;20073;-77
2023/09/19 09:06:15;;;;;;;14.48;5.47;;;;;;;21.55;54.68;94210.88;5083143;28;20028;-77
2023/09/19 09:08:42;;;;;;;14.20;5.50;;;;;;;21.61;53.94;94208.59;5083232;28;20036;-77
2023/09/19 09:11:08;;;;;;;12.55;5.15;;;;;;;21.71;53.35;94213.34;5082916;28;20027;-76
2023/09/19 09:13:36;;;;;;;14.57;4.70;;;;;;;21.78;52.90;94218.84;5082864;28;20123;-76
2023/09/19 09:16:02;;;;;;;12.20;5.05;;;;;;;21.95;53.09;94211.19;5083024;28;20100;-77
2023/09/19 09:18:29;;;;;;;18.25;5.10;;;;;;;22.00;52.87;94208.13;5082892;28;20086;-77
2023/09/19 09:20:55;;;;;;;10.88;5.18;;;;;;;21.94;52.67;94209.63;5082808;28;20024;-76
2023/09/19 09:23:21;;;;;;;12.85;5.68;;;;;;;22.01;51.93;94209.69;5082730;28;20024;-77
2023/09/19 09:25:54;;;;;;;16.20;5.57;;;;;;;21.98;52.05;94210.44;5082763;28;20027;-77
2023/09/19 09:28:21;;;;;;;9.38;5.20;;;;;;;21.94;52.15;94198.78;5082783;28;20031;-76
2023/09/19 09:30:47;;;;;;;11.93;5.30;;;;;;;21.79;52.35;94198.66;5082230;28;20222;-77
2023/09/19 09:33:15;;;;;;;24.60;5.78;;;;;;;21.86;52.56;94195.25;5082739;28;20021;-77
2023/09/19 09:36:00;;;;;;;13.50;5.78;;;;;;;21.94;52.22;94206.91;5082901;28;20016;-76
2023/09/19 09:38:43;;;;;;;11.75;5.57;;;;;;;21.80;52.16;94202.19;5082585;28;20021;-77
2023/09/19 09:41:09;;;;;;;12.43;5.28;;;;;;;21.83;52.43;94191.34;5082848;28;20055;-77
2023/09/19 09:43:38;;;;;;;15.80;4.82;;;;;;;21.89;52.42;94175.50;5064867;28;20266;-77
2023/09/19 09:46:50;;;;;;;14.23;6.25;;;;;;;22.06;52.43;94173.28;5082525;28;20036;-77
2023/09/19 09:49:14;;;;;;;13.02;5.72;;;;;;;22.16;52.11;94178.75;5082454;28;20215;-76
2023/09/19 09:51:47;;;;;;;20.85;5.70;;;;;;;22.31;52.33;94170.72;5082672;28;20050;-77
2023/09/19 09:54:17;;;;;;;12.57;5.38;;;;;;;22.62;52.67;94167.38;5082572;28;20021;-77
2023/09/19 09:59:55;;;;;;;11.57;4.57;;;;;;;23.18;50.87;94159.81;5082636;28;20039;-77
2023/09/19 10:02:29;;;;;;;13.02;4.93;;;;;;;23.35;50.14;94160.22;5082432;28;20017;-76
2023/09/19 10:05:43;;;;;;;14.98;5.70;;;;;;;23.65;49.96;94159.84;5082159;28;20025;-77
2023/09/19 10:07:53;;;;;;;23.27;4.93;;;;;;;23.89;48.40;94162.94;5074191;28;20036;-77
2023/09/19 10:10:53;;;;;;;15.82;5.65;;;;;;;23.90;47.50;94165.28;5082353;28;20334;-77
2023/09/19 10:13:23;;;;;;;15.75;5.70;;;;;;;23.92;47.45;94162.97;5082102;28;20040;-77
2023/09/19 10:15:54;;;;;;;14.00;4.85;;;;;;;23.92;47.31;94159.47;5082276;28;20070;-77
2023/09/19 10:18:23;;;;;;;11.13;5.60;;;;;;;24.02;46.96;94161.41;5082481;28;20069;-77
2023/09/19 10:20:49;;;;;;;14.35;5.05;;;;;;;23.98;47.75;94155.94;5082362;28;20016;-77
2023/09/19 10:23:23;;;;;;;13.02;5.60;;;;;;;24.11;47.88;94152.81;5082086;28;20095;-77
2023/09/19 10:25:49;;;;;;;19.60;4.40;;;;;;;24.31;48.84;94153.94;5082259;28;20024;-76
2023/09/19 10:28:21;;;;;;;12.00;5.32;;;;;;;24.42;48.27;94156.59;5082277;28;20020;-77
2023/09/19 10:30:49;;;;;;;8.02;3.97;;;;;;;24.55;47.46;94157.78;5082311;28;20090;-77
2023/09/19 10:33:17;;;;;;;16.95;4.75;;;;;;;24.62;46.74;94155.00;5082238;28;20326;-77
2023/09/19 10:35:48;;;;;;;9.88;5.10;;;;;;;24.42;46.09;94149.22;5082126;28;20020;-77
2023/09/19 10:38:18;;;;;;;12.35;4.93;;;;;;;24.43;45.79;94150.78;5082139;28;20037;-77
2023/09/19 10:40:48;;;;;;;14.68;5.25;;;;;;;24.32;45.32;94154.69;5082801;28;20029;-77
2023/09/19 10:43:18;;;;;;;11.32;4.18;;;;;;;24.28;46.34;94151.22;5085733;28;20025;-77
2023/09/19 10:45:44;;;;;;;11.13;4.90;;;;;;;24.04;47.12;94142.72;5085480;28;20069;-77
2023/09/19 10:48:12;;;;;;;20.38;6.22;;;;;;;23.93;46.37;94148.16;5086016;28;20079;-77
2023/09/19 10:51:00;;;;;;;9.75;4.82;;;;;;;23.86;46.73;94131.09;5085965;28;20051;-77
2023/09/19 10:53:29;;;;;;;15.10;4.47;;;;;;;23.83;47.35;94141.59;5067722;28;20031;-77
2023/09/19 10:55:59;;;;;;;16.08;5.18;;;;;;;23.82;47.04;94145.47;5085485;28;20036;-77
2023/09/19 10:58:29;;;;;;;8.77;4.90;;;;;;;23.82;48.07;94134.56;5067655;28;20246;-77
2023/09/19 11:01:02;;;;;;;9.48;4.82;;;;;;;23.97;47.34;94132.59;5085281;28;20318;-77
2023/09/19 11:03:30;;;;;;;16.05;4.78;;;;;;;24.08;46.99;94135.31;5067505;28;20024;-77
2023/09/19 11:06:04;;;;;;;12.25;4.50;;;;;;;24.19;47.16;94133.34;5085270;28;20020;-77
2023/09/19 11:08:49;;;;;;;24.05;5.03;;;;;;;24.39;46.60;94124.72;5085424;28;20032;-77
2023/09/19 11:11:39;;;;;;;12.27;4.68;;;;;;;24.48;47.55;94138.69;5085267;28;20050;-77
2023/09/19 11:14:15;;;;;;;13.05;4.82;;;;;;;24.59;46.21;94133.25;5084935;28;20243;-77
2023/09/19 11:17:13;;;;;;;9.35;4.00;;;;;;;24.72;46.17;94120.72;5085378;28;20024;-77
2023/09/19 11:22:54;;;;;;;10.27;4.20;;;;;;;25.03;44.89;94119.00;5085087;28;20028;-77
2023/09/19 11:25:32;;;;;;;9.57;4.38;;;;;;;25.16;45.24;94110.34;5085017;28;20028;-77
2023/09/19 11:28:05;;;;;;;11.98;4.35;;;;;;;25.28;44.67;94117.28;5084951;28;20051;-77
2023/09/19 11:30:32;;;;;;;10.77;4.97;;;;;;;25.39;43.33;94113.31;5085034;28;20013;-77
2023/09/19 11:33:28;;;;;;;9.25;4.53;;;;;;;25.30;43.47;94112.19;5084834;28;20065;-77
2023/09/19 11:36:08;;;;;;;12.00;4.50;;;;;;;25.12;43.93;94104.13;5084645;28;20036;-77
2023/09/19 11:38:46;;;;;;;12.77;4.70;;;;;;;25.38;44.17;94111.75;5084675;28;20020;-76
2023/09/19 11:41:20;;;;;;;12.77;4.43;;;;;;;25.53;43.81;94100.72;5084599;28;20073;-77